Jacksonville Beach, Florida
Current Conditions -  °F | °C
As of 10:52 PM on Friday 24 Oct 2014 (Local Time) from KNRB Reporting Station
Clear Clear  
Wind Chill: 64°   Ceiling: Unl
Heat Index: 64°   Visibility: 10mi
Dew Point: 55°   Wind: 5mph
Humidity: 72%   Direction: 10°N
Pressure: 30.01"   Gusts: NA
Location:  30.29°N, 81.39°W
Report Text: KNRB 250252Z AUTO 01004KT 10SM CLR 18/13 A3001 RMK AO2 SLP160 T01780128 51008
Loading
Personal Weather Stations






























Interactive Weather Map
Tropical Storm Tracking
New forecast layout! Learn more

10-Day Weather Forecast

Advertisements
Track Severe Weather on mobile